Branson, CO

3:17 PM MDT on September 01, 2014 (GMT -0600)
Stokes | Change Station
CLOSE
Current Station
Airport
Location: Trinidad,
Elevation: 5761 ft
Nearby Weather Stations

Elev 5761 ft 37.26 °N, 104.33 °W | Updated 23 minutes ago

Clear
Clear
88 °F
Feels Like 88 °F
N
10
Wind Variable Wind from East
Gusts 18 mph

Today
High -- | Low -- °F
--% Chance of Precip.
Yesterday
High -- | Low -- °F
Precip. -- in
6:25 AM 7:23 PM
Waxing Crescent, 44% visible
Pressure 29.73 in
Visibility 10.0 miles
Clouds Clear
Dew Point 40 °F
Humidity 18%
Rainfall 0.00 in
Snow Depth Not available.
UV 8 out of 12
Pollen 10.00 out of 12
Air Quality Not available.
Flu Activity Not available.
METAR KTAD 012054Z AUTO 10009G16KT 10SM CLR 31/04 A2998 RMK AO2 SLP067 T03110044 58031

More Conditions Fewer Conditions

Pressure 29.73 in
Visibility 10.0 miles
Clouds Clear
Dew Point 40 °F
Humidity 18%
Rainfall 0.00 in
Snow Depth Not available.
UV 8 out of 12
Pollen 10.00 out of 12
Air Quality Not available.
Flu Activity Not available.
METAR KTAD 012054Z AUTO 10009G16KT 10SM CLR 31/04 A2998 RMK AO2 SLP067 T03110044 58031

More Conditions Fewer Conditions

10-Day Weather Forecast

Almanac

Astronomy

Sep. 01, 2014 Rise Set
Actual Time 6:25 AM MDT 7:23 PM MDT
Civil Twilight 5:59 AM MDT 7:50 PM MDT
Nautical Twilight 5:27 AM MDT 8:21 PM MDT
Astronomical Twilight 4:54 AM MDT 8:54 PM MDT
Moon 1:04 PM MDT 11:36 PM MDT
Length of Visible Light 13h 50m
Length of Day
12h 57m
Tomorrow will be 2m 16s shorter.
Waxing Crescent, 44% of the Moon is Illuminated
Today
Waxing Crescent
Sep 2
First Quarter
Sep 8
Full
Sep 15
Last Quarter
Sep 24
New

Today's Extremes

State Highs State Lows

Community

WunderPhotos

Upload Photos

1,749,409 photos uploaded!

WunderBlogs® & News

Nearby

Snow Depth

Station Depth Elevation
Medano Pass 0 in 9620 ft
Upper San Juan 0 in 10130 ft
Rough And Tumble 0 in 10360 ft
Michigan Creek 0 in 10600 ft
Jackwhacker Gulch 0 in 10960 ft

Earthquake Activity

City Distance Mag. Time & Date
Trinidad, Colorado 64 miles 2.7 4:20 AM MDT
2014-08-31
Minimum magnitude displayed is 2.5.

Coastal Water Temperatures

Place Temperature
No Stations Reporting

Nearby Weather Stations